Observations for ALDERNEY CHANNEL IS, United Kingdom (EGJA)

EGJA 251750Z 34005KT 9999 FEW006 15/14 Q1021
EGJA 251720Z 34008KT 9999 SCT006 16/14 Q1021
EGJA 251650Z 34008KT 9999 SCT006 16/14 Q1020
EGJA 251620Z 34008KT 9999 SCT006 16/15 Q1020
EGJA 251550Z 34008KT 8000 SCT006 16/15 Q1020
EGJA 251520Z 34008KT 8000 SCT006 16/15 Q1020
EGJA 251450Z 34008KT 8000 SCT006 16/15 Q1019
EGJA 251420Z 34008KT 8000 BKN006 16/15 Q1019
EGJA 251350Z 36010KT 8000 BKN006 16/15 Q1019
EGJA 251320Z 36010KT 8000 BKN006 17/15 Q1019
EGJA 251250Z 36010KT 8000 BKN006 16/15 Q1019
EGJA 251220Z 36010KT 9999 SCT006 BKN020 16/15 Q1019 
EGJA 251150Z 36012KT 9999 SCT006 BKN020 16/15 Q1019 
EGJA 251120Z 36008KT 9999 SCT006 BKN020 16/15 Q1019 
EGJA 251050Z 36007KT 9999 BKN006 16/15 Q1019
EGJA 250950Z 36008KT 9999 SCT003 BKN005 16/15 Q1018 
EGJA 250920Z 36008KT 9999 SCT003 BKN020 16/15 Q1018 
EGJA 250850Z 36005KT 9999 SCT003 BKN020 16/15 Q1018 
EGJA 250820Z 36005KT 9999 BKN003 16/15 Q1018
EGJA 250750Z 36005KT 9999 SCT003 BKN020 15/14 Q1018 
EGJA 250720Z 36005KT 9999 SCT003 BKN020 15/14 Q1017 
EGJA 250650Z 36005KT 9999 FEW002 SCT003 BKN020 16/15 Q1017  
EGJA 250620Z 02007KT 9999 -DZ SCT002 BKN003 15/14 Q1017 
EGJA 250550Z 36005KT 9999 FEW002 BKN003 15/14 Q1017